createdAt,value
2023-06-12T00:00:46.641Z,50.60
2023-06-12T00:03:14.870Z,50.70
2023-06-12T00:05:44.437Z,51.30
2023-06-12T00:08:15.054Z,50.70
2023-06-12T00:10:43.103Z,51.30
2023-06-12T00:13:11.009Z,50.60
2023-06-12T00:15:38.972Z,50.60
2023-06-12T00:18:07.478Z,50.70
2023-06-12T00:20:35.473Z,51.60
2023-06-12T00:23:03.550Z,51.70
2023-06-12T00:25:32.841Z,51.70
2023-06-12T00:28:00.764Z,51.90
2023-06-12T00:30:28.761Z,51.70
2023-06-12T00:32:56.755Z,51.50
2023-06-12T00:35:24.945Z,51.90
2023-06-12T00:37:52.907Z,51.80
2023-06-12T00:40:21.491Z,52.60
2023-06-12T00:42:52.073Z,51.50
2023-06-12T00:45:22.192Z,51.60
2023-06-12T00:47:52.909Z,51.40
2023-06-12T00:50:21.866Z,51.40
2023-06-12T00:52:50.656Z,51.20
2023-06-12T00:55:18.613Z,51.20
2023-06-12T00:57:47.241Z,50.90
2023-06-12T01:00:18.356Z,51.20
2023-06-12T01:02:47.879Z,51.10
2023-06-12T01:05:17.713Z,51.60
2023-06-12T01:07:48.811Z,51.90
2023-06-12T01:10:19.732Z,51.80
2023-06-12T01:12:47.651Z,51.90
2023-06-12T01:15:16.964Z,51.60
2023-06-12T01:17:45.011Z,51.50
2023-06-12T01:20:14.028Z,51.60
2023-06-12T01:22:48.375Z,51.40
2023-06-12T01:25:40.204Z,51.20
2023-06-12T01:28:19.271Z,50.80
2023-06-12T01:30:59.429Z,51.00
2023-06-12T01:33:34.063Z,51.10
2023-06-12T01:36:02.526Z,50.70
2023-06-12T01:38:31.860Z,50.50
2023-06-12T01:41:00.439Z,50.60
2023-06-12T01:43:28.420Z,51.20
2023-06-12T01:45:56.396Z,51.00
2023-06-12T01:48:25.684Z,51.50
2023-06-12T01:50:56.427Z,51.30
2023-06-12T01:53:24.884Z,51.10
2023-06-12T01:55:54.379Z,51.00
2023-06-12T01:58:26.521Z,51.00
2023-06-12T02:01:16.789Z,51.20
2023-06-12T02:03:46.974Z,50.90
2023-06-12T02:06:17.040Z,51.00
2023-06-12T02:08:46.718Z,51.10
2023-06-12T02:11:15.493Z,51.00
2023-06-12T02:13:43.478Z,50.70
2023-06-12T02:16:11.824Z,50.60
2023-06-12T02:18:43.106Z,51.70
2023-06-12T02:21:11.138Z,51.30
2023-06-12T02:23:40.898Z,51.20
2023-06-12T02:26:08.906Z,51.00
2023-06-12T02:28:36.872Z,51.20
2023-06-12T02:31:05.569Z,51.10
2023-06-12T02:33:36.031Z,51.20
2023-06-12T02:36:06.034Z,51.10
2023-06-12T02:38:34.143Z,51.00
2023-06-12T02:41:03.578Z,51.10
2023-06-12T02:43:31.533Z,50.80
2023-06-12T02:45:59.604Z,51.20
2023-06-12T02:48:31.537Z,50.80
2023-06-12T02:51:00.305Z,51.30
2023-06-12T02:53:28.324Z,50.90
2023-06-12T02:55:56.320Z,51.20
2023-06-12T02:58:25.690Z,51.00
2023-06-12T03:00:54.160Z,50.90
2023-06-12T03:03:22.237Z,50.70
2023-06-12T03:05:50.854Z,50.60
2023-06-12T03:08:20.107Z,50.50
2023-06-12T03:10:48.104Z,51.70
2023-06-12T03:13:16.100Z,50.80
2023-06-12T03:15:46.842Z,50.10
2023-06-12T03:18:14.827Z,50.70
2023-06-12T03:20:42.841Z,50.40
2023-06-12T03:23:10.807Z,50.70
2023-06-12T03:25:38.839Z,50.60
2023-06-12T03:28:06.945Z,50.60
2023-06-12T03:30:35.577Z,50.80
2023-06-12T03:33:06.063Z,50.40
2023-06-12T03:35:34.173Z,50.60
2023-06-12T03:38:02.465Z,50.20
2023-06-12T03:40:30.430Z,50.10
2023-06-12T03:42:58.701Z,50.70
2023-06-12T03:45:27.872Z,50.40
2023-06-12T03:48:01.138Z,50.70
2023-06-12T03:50:30.574Z,50.20
2023-06-12T03:52:58.833Z,50.60
2023-06-12T03:55:26.775Z,50.80
2023-06-12T03:57:54.804Z,51.20
2023-06-12T04:00:23.612Z,50.90
2023-06-12T04:02:53.235Z,51.10
2023-06-12T04:05:22.908Z,50.70
2023-06-12T04:07:52.624Z,50.80
2023-06-12T04:10:21.585Z,50.60
2023-06-12T04:12:50.375Z,50.80
2023-06-12T04:15:18.478Z,50.80
2023-06-12T04:17:46.592Z,50.80
2023-06-12T04:20:15.356Z,50.80
2023-06-12T04:22:43.358Z,50.40
2023-06-12T04:25:13.284Z,50.50
2023-06-12T04:27:41.327Z,50.80
2023-06-12T04:30:10.763Z,50.50
2023-06-12T04:32:39.700Z,50.40
2023-06-12T04:35:09.355Z,50.60
2023-06-12T04:37:38.394Z,51.00
2023-06-12T04:40:07.477Z,51.10
2023-06-12T04:42:37.307Z,50.90
2023-06-12T04:45:06.635Z,50.80
2023-06-12T04:47:37.397Z,50.90
2023-06-12T04:50:06.963Z,51.00
2023-06-12T04:52:35.345Z,51.20
2023-06-12T04:55:04.434Z,51.10
2023-06-12T04:57:32.595Z,50.90
2023-06-12T05:00:04.557Z,50.00
2023-06-12T05:02:34.352Z,50.10
2023-06-12T05:05:03.193Z,50.40
2023-06-12T05:07:32.733Z,50.60
2023-06-12T05:10:02.325Z,51.20
2023-06-12T05:12:32.493Z,50.80
2023-06-12T05:15:02.729Z,50.60
2023-06-12T05:17:30.874Z,50.80
2023-06-12T05:20:01.048Z,50.90
2023-06-12T05:22:29.812Z,50.30
2023-06-12T05:24:57.822Z,50.10
2023-06-12T05:27:26.746Z,50.40
2023-06-12T05:29:55.013Z,50.90
2023-06-12T05:32:24.347Z,51.40
2023-06-12T05:34:52.365Z,51.10
2023-06-12T05:37:20.418Z,50.60
2023-06-12T05:39:48.413Z,50.50
2023-06-12T05:42:16.773Z,50.10
2023-06-12T05:44:47.453Z,50.00
2023-06-12T05:47:15.514Z,50.30
2023-06-12T05:49:44.930Z,50.30
2023-06-12T05:52:13.394Z,50.50
2023-06-12T05:54:42.492Z,50.40
2023-06-12T05:57:12.452Z,50.40
2023-06-12T05:59:41.344Z,50.40
2023-06-12T06:02:09.384Z,50.50
2023-06-12T06:04:38.333Z,50.90
2023-06-12T06:07:17.702Z,50.80
2023-06-12T06:09:48.278Z,50.50
2023-06-12T06:12:16.978Z,50.50
2023-06-12T06:14:45.048Z,50.50
2023-06-12T06:17:13.122Z,50.50
2023-06-12T06:19:41.158Z,50.40
2023-06-12T06:22:10.504Z,50.40
2023-06-12T06:24:38.451Z,50.50
2023-06-12T06:27:09.635Z,50.80
2023-06-12T06:29:37.805Z,50.70
2023-06-12T06:32:06.577Z,50.20
2023-06-12T06:34:37.146Z,49.90
2023-06-12T06:37:05.687Z,49.70
2023-06-12T06:39:35.002Z,49.30
2023-06-12T06:42:04.006Z,48.90
2023-06-12T06:44:42.722Z,48.60
2023-06-12T06:47:12.504Z,48.20
2023-06-12T06:49:41.571Z,48.30
2023-06-12T06:52:09.781Z,47.90
2023-06-12T06:54:39.280Z,47.90
2023-06-12T06:57:10.701Z,47.60
2023-06-12T06:59:39.334Z,47.70
2023-06-12T07:02:07.377Z,47.90
2023-06-12T07:04:35.495Z,47.90
2023-06-12T07:07:04.214Z,47.00
2023-06-12T07:09:32.303Z,47.50
2023-06-12T07:12:01.701Z,47.30
2023-06-12T07:14:30.444Z,47.30
2023-06-12T07:16:58.404Z,47.30
2023-06-12T07:19:26.320Z,48.10
2023-06-12T07:21:54.353Z,46.90
2023-06-12T07:24:23.002Z,46.80
2023-06-12T07:26:51.030Z,46.50
2023-06-12T07:29:20.911Z,46.10
2023-06-12T07:31:49.247Z,45.90
2023-06-12T07:34:18.614Z,45.80
2023-06-12T07:36:46.623Z,45.80
2023-06-12T07:39:16.170Z,46.00
2023-06-12T07:41:44.368Z,45.70
2023-06-12T07:44:12.516Z,45.60
2023-06-12T07:46:44.635Z,45.60
2023-06-12T07:49:14.473Z,45.70
2023-06-12T07:51:42.503Z,45.50
2023-06-12T07:54:13.354Z,45.30
2023-06-12T07:56:41.447Z,45.40
2023-06-12T07:59:10.235Z,45.40
2023-06-12T08:01:39.604Z,45.40
2023-06-12T08:04:11.378Z,45.10
2023-06-12T08:06:40.415Z,45.30
2023-06-12T08:09:10.198Z,45.40
2023-06-12T08:11:38.342Z,45.20
2023-06-12T08:14:06.741Z,44.80
2023-06-12T08:16:36.555Z,44.60
2023-06-12T08:19:05.107Z,44.40
2023-06-12T08:21:37.496Z,44.10
2023-06-12T08:24:07.643Z,43.90
2023-06-12T08:26:36.130Z,43.80
2023-06-12T08:29:04.605Z,43.70
2023-06-12T08:31:36.379Z,43.40
2023-06-12T08:34:04.506Z,43.10
2023-06-12T08:36:32.493Z,43.10
2023-06-12T08:39:01.846Z,42.90
2023-06-12T08:41:31.038Z,42.90
2023-06-12T08:44:00.537Z,42.90
2023-06-12T08:46:35.992Z,43.00
2023-06-12T08:49:05.469Z,43.00
2023-06-12T08:51:34.263Z,43.10
2023-06-12T08:54:04.052Z,42.90
2023-06-12T08:56:32.138Z,42.90
2023-06-12T08:59:00.143Z,43.90
2023-06-12T09:01:30.049Z,43.00
2023-06-12T09:03:58.499Z,43.10
2023-06-12T09:06:27.640Z,43.40
2023-06-12T09:08:55.598Z,43.40
2023-06-12T09:11:24.900Z,43.30
2023-06-12T09:13:53.127Z,43.00
2023-06-12T09:16:24.105Z,43.40
2023-06-12T09:18:52.933Z,43.50
2023-06-12T09:21:22.679Z,43.40
2023-06-12T09:23:51.774Z,43.50
2023-06-12T09:26:23.284Z,43.30
2023-06-12T09:28:56.274Z,43.50
2023-06-12T09:31:24.337Z,43.00
2023-06-12T09:33:53.206Z,43.30
2023-06-12T09:36:21.581Z,43.20
2023-06-12T09:38:49.919Z,43.10
2023-06-12T09:41:19.932Z,42.80
2023-06-12T09:43:47.978Z,43.00
2023-06-12T09:46:18.151Z,42.90
2023-06-12T09:48:48.724Z,43.00
2023-06-12T09:51:17.692Z,43.00
2023-06-12T09:53:45.734Z,42.50
2023-06-12T09:56:13.736Z,42.70
2023-06-12T09:58:41.766Z,43.00
2023-06-12T10:01:10.142Z,42.40
2023-06-12T10:03:42.020Z,43.00
2023-06-12T10:06:11.472Z,42.90
2023-06-12T10:08:39.439Z,42.70
2023-06-12T10:11:07.491Z,42.80
2023-06-12T10:13:35.804Z,42.40
2023-06-12T10:16:04.006Z,41.90
2023-06-12T10:18:32.003Z,42.10
2023-06-12T10:21:01.485Z,42.60
2023-06-12T10:23:31.180Z,42.50
2023-06-12T10:26:00.721Z,42.30
2023-06-12T10:28:28.718Z,41.90
2023-06-12T10:31:13.887Z,42.00
2023-06-12T10:33:58.021Z,41.90
2023-06-12T10:36:30.439Z,42.00
2023-06-12T10:39:03.552Z,41.90
2023-06-12T10:41:32.602Z,41.90
2023-06-12T10:44:01.263Z,41.60
2023-06-12T10:46:45.597Z,40.50
2023-06-12T10:49:14.550Z,41.20
2023-06-12T10:51:50.600Z,40.40
2023-06-12T10:54:20.371Z,41.10
2023-06-12T10:56:58.803Z,41.90
2023-06-12T10:59:35.992Z,39.90
2023-06-12T11:02:04.925Z,40.00
2023-06-12T11:04:37.606Z,39.90
2023-06-12T11:07:07.922Z,40.60
2023-06-12T11:09:41.170Z,39.80
2023-06-12T11:12:09.848Z,40.70
2023-06-12T11:14:37.820Z,41.40
2023-06-12T11:17:06.322Z,40.50
2023-06-12T11:19:34.404Z,39.70
2023-06-12T11:22:04.737Z,39.80
2023-06-12T11:24:34.162Z,39.80
2023-06-12T11:27:02.440Z,39.70
2023-06-12T11:29:31.011Z,40.00
2023-06-12T11:32:02.054Z,41.30
2023-06-12T11:34:35.578Z,40.60
2023-06-12T11:37:15.443Z,40.40
2023-06-12T11:42:16.140Z,39.80
2023-06-12T11:44:44.212Z,40.40
2023-06-12T11:49:43.280Z,39.50
2023-06-12T11:52:11.291Z,41.00
2023-06-12T11:57:31.313Z,39.80
2023-06-12T11:59:59.361Z,39.50
2023-06-12T12:02:31.761Z,39.30
2023-06-12T12:05:00.694Z,39.30
2023-06-12T12:07:32.215Z,40.80
2023-06-12T12:10:07.281Z,40.50
2023-06-12T12:12:42.662Z,39.60
2023-06-12T12:15:11.375Z,39.30
2023-06-12T12:17:40.130Z,39.50
2023-06-12T12:20:09.790Z,39.30
2023-06-12T12:22:42.067Z,39.60
2023-06-12T12:25:12.618Z,39.70
2023-06-12T12:27:40.623Z,39.80
2023-06-12T12:30:11.676Z,41.30
2023-06-12T12:32:39.997Z,41.10
2023-06-12T12:35:09.223Z,41.10
2023-06-12T12:37:37.265Z,41.50
2023-06-12T12:40:10.405Z,41.70
2023-06-12T12:42:40.890Z,41.70
2023-06-12T12:45:09.706Z,41.90
2023-06-12T12:47:38.057Z,42.20
2023-06-12T12:50:08.697Z,42.20
2023-06-12T12:52:42.337Z,42.20
2023-06-12T12:55:12.131Z,42.40
2023-06-12T12:57:43.642Z,42.50
2023-06-12T13:00:13.493Z,42.50
2023-06-12T13:02:42.881Z,42.30
2023-06-12T13:05:12.049Z,42.40
2023-06-12T13:07:40.018Z,42.40
2023-06-12T13:10:09.369Z,42.40
2023-06-12T13:12:37.351Z,42.30
2023-06-12T13:15:08.096Z,42.00
2023-06-12T13:17:36.326Z,41.50
2023-06-12T13:20:05.463Z,40.40
2023-06-12T13:22:33.907Z,40.20
2023-06-12T13:25:02.037Z,40.00
2023-06-12T13:27:30.031Z,39.70
2023-06-12T13:29:58.068Z,39.70
2023-06-12T13:32:27.652Z,40.00
2023-06-12T13:34:55.697Z,40.10
2023-06-12T13:37:24.921Z,40.00
2023-06-12T13:39:52.897Z,39.70
2023-06-12T13:42:20.840Z,39.80
2023-06-12T13:44:49.115Z,39.50
2023-06-12T13:47:17.101Z,39.20
2023-06-12T13:49:46.409Z,39.80
2023-06-12T13:52:14.956Z,39.80
2023-06-12T13:54:42.883Z,39.60
2023-06-12T13:57:11.988Z,40.00
2023-06-12T13:59:39.980Z,40.30
2023-06-12T14:02:09.477Z,40.40
2023-06-12T14:04:37.593Z,41.20
2023-06-12T14:07:07.884Z,41.30
2023-06-12T14:09:36.438Z,41.50
2023-06-12T14:12:05.013Z,41.70
2023-06-12T14:14:33.003Z,41.70
2023-06-12T14:17:01.236Z,41.90
2023-06-12T14:19:29.838Z,42.00
2023-06-12T14:21:57.832Z,42.20
2023-06-12T14:24:37.534Z,42.30
2023-06-12T14:27:08.557Z,42.30
2023-06-12T14:29:36.622Z,42.10
2023-06-12T14:32:04.961Z,41.90
2023-06-12T14:34:32.959Z,41.70
2023-06-12T14:37:00.906Z,41.50
2023-06-12T14:39:30.217Z,41.40
2023-06-12T14:41:58.290Z,41.30
2023-06-12T14:44:26.993Z,41.30
2023-06-12T14:46:54.964Z,41.30
2023-06-12T14:49:23.055Z,41.20
2023-06-12T14:51:50.996Z,41.60
2023-06-12T14:54:18.954Z,41.20
2023-06-12T14:56:48.294Z,41.10
2023-06-12T14:59:16.368Z,40.90
2023-06-12T15:01:44.392Z,41.20
2023-06-12T15:04:12.495Z,41.10
2023-06-12T15:06:40.722Z,41.00
2023-06-12T15:09:08.717Z,40.60
2023-06-12T15:11:36.682Z,40.30
2023-06-12T15:14:06.431Z,40.40
2023-06-12T15:16:34.764Z,40.30
2023-06-12T15:19:02.913Z,40.50
2023-06-12T15:21:31.004Z,40.50
2023-06-12T15:23:59.034Z,40.40
2023-06-12T15:26:27.589Z,40.40
2023-06-12T15:28:59.069Z,40.40
2023-06-12T15:31:28.442Z,40.30
2023-06-12T15:33:56.531Z,40.40
2023-06-12T15:36:24.533Z,40.20
2023-06-12T15:38:52.583Z,40.30
2023-06-12T15:41:20.820Z,40.40
2023-06-12T15:43:48.939Z,40.20
2023-06-12T15:46:17.399Z,40.10
2023-06-12T15:48:46.815Z,40.20
2023-06-12T15:51:14.981Z,40.10
2023-06-12T15:53:43.146Z,40.20
2023-06-12T15:56:11.565Z,39.90
2023-06-12T15:58:40.101Z,39.90
2023-06-12T16:01:08.049Z,39.40
2023-06-12T16:03:36.067Z,39.40
2023-06-12T16:06:05.639Z,39.80
2023-06-12T16:08:33.625Z,40.00
2023-06-12T16:11:01.588Z,39.90
2023-06-12T16:13:29.567Z,39.90
2023-06-12T16:15:58.396Z,40.00
2023-06-12T16:18:26.339Z,39.50
2023-06-12T16:20:54.279Z,39.90
2023-06-12T16:23:23.668Z,39.80
2023-06-12T16:25:51.623Z,39.70
2023-06-12T16:28:19.649Z,39.70
2023-06-12T16:30:47.598Z,39.70
2023-06-12T16:33:15.754Z,39.60
2023-06-12T16:35:44.666Z,39.50
2023-06-12T16:38:12.669Z,39.50
2023-06-12T16:40:42.009Z,39.40
2023-06-12T16:43:09.970Z,39.30
2023-06-12T16:45:39.036Z,38.80
2023-06-12T16:48:07.743Z,38.90
2023-06-12T16:50:36.351Z,38.80
2023-06-12T16:53:04.869Z,38.70
2023-06-12T16:55:32.845Z,38.80
2023-06-12T16:58:05.012Z,38.60
2023-06-12T17:00:34.103Z,38.10
2023-06-12T17:03:02.173Z,38.20
2023-06-12T17:05:30.411Z,38.20
2023-06-12T17:07:58.470Z,38.10
2023-06-12T17:10:26.667Z,37.90
2023-06-12T17:12:55.011Z,37.80
2023-06-12T17:15:24.354Z,37.80
2023-06-12T17:17:52.909Z,38.00
2023-06-12T17:20:21.769Z,37.90
2023-06-12T17:22:49.867Z,38.10
2023-06-12T17:25:17.864Z,38.10
2023-06-12T17:27:45.817Z,38.10
2023-06-12T17:30:14.967Z,38.10
2023-06-12T17:32:44.644Z,38.10
2023-06-12T17:35:12.698Z,38.30
2023-06-12T17:37:40.731Z,38.50
2023-06-12T17:40:10.298Z,38.30
2023-06-12T17:42:38.331Z,38.50
2023-06-12T17:45:07.620Z,38.10
2023-06-12T17:47:35.674Z,38.00
2023-06-12T17:50:05.433Z,38.10
2023-06-12T17:52:33.394Z,38.10
2023-06-12T17:55:01.370Z,38.10
2023-06-12T17:57:29.377Z,38.80
2023-06-12T17:59:57.393Z,38.80
2023-06-12T18:02:25.983Z,39.40
2023-06-12T18:04:54.085Z,39.90
2023-06-12T18:07:23.751Z,39.50
2023-06-12T18:09:51.716Z,39.70
2023-06-12T18:12:19.651Z,39.10
2023-06-12T18:14:47.882Z,40.20
2023-06-12T18:17:16.036Z,40.30
2023-06-12T18:19:44.392Z,40.20
2023-06-12T18:22:12.468Z,40.60
2023-06-12T18:24:42.007Z,40.40
2023-06-12T18:27:10.035Z,40.70
2023-06-12T18:29:38.067Z,39.80
2023-06-12T18:32:06.774Z,40.10
2023-06-12T18:34:35.039Z,40.50
2023-06-12T18:37:04.758Z,40.50
2023-06-12T18:39:32.763Z,40.40
2023-06-12T18:42:02.126Z,40.60
2023-06-12T18:44:30.096Z,40.50
2023-06-12T18:46:58.200Z,40.50
2023-06-12T18:49:26.258Z,40.50
2023-06-12T18:51:54.261Z,40.60
2023-06-12T18:54:22.261Z,40.60
2023-06-12T18:56:50.473Z,40.80
2023-06-12T18:59:20.067Z,40.70
2023-06-12T19:01:48.163Z,40.60
2023-06-12T19:04:16.247Z,40.60
2023-06-12T19:06:44.198Z,40.70
2023-06-12T19:09:13.127Z,40.80
2023-06-12T19:11:41.205Z,40.60
2023-06-12T19:14:09.220Z,40.50
2023-06-12T19:16:38.619Z,41.10
2023-06-12T19:19:06.804Z,40.90
2023-06-12T19:21:34.855Z,40.80
2023-06-12T19:24:02.924Z,40.70
2023-06-12T19:26:30.915Z,41.00
2023-06-12T19:28:58.864Z,41.10
2023-06-12T19:31:26.967Z,42.00
2023-06-12T19:33:56.312Z,41.20
2023-06-12T19:36:24.321Z,41.10
2023-06-12T19:38:52.278Z,41.30
2023-06-12T19:41:20.287Z,41.30
2023-06-12T19:43:48.213Z,41.60
2023-06-12T19:46:16.230Z,41.30
2023-06-12T19:48:44.599Z,41.20
2023-06-12T19:51:13.893Z,41.10
2023-06-12T19:53:42.248Z,41.20
2023-06-12T19:56:10.300Z,41.20
2023-06-12T19:58:38.252Z,41.40
2023-06-12T20:01:06.256Z,41.50
2023-06-12T20:03:34.289Z,41.60
2023-06-12T20:06:02.319Z,41.90
2023-06-12T20:08:33.454Z,42.30
2023-06-12T20:11:01.434Z,42.30
2023-06-12T20:13:29.460Z,42.00
2023-06-12T20:15:57.453Z,42.20
2023-06-12T20:18:25.392Z,42.50
2023-06-12T20:20:53.330Z,42.80
2023-06-12T20:23:22.301Z,42.80
2023-06-12T20:25:52.160Z,43.10
2023-06-12T20:28:21.135Z,42.80
2023-06-12T20:30:49.224Z,43.50
2023-06-12T20:33:17.868Z,43.80
2023-06-12T20:35:45.965Z,43.90
2023-06-12T20:38:13.930Z,43.80
2023-06-12T20:40:42.152Z,43.50
2023-06-12T20:43:14.506Z,43.60
2023-06-12T20:45:42.787Z,43.50
2023-06-12T20:48:11.111Z,43.70
2023-06-12T20:50:39.208Z,43.90
2023-06-12T20:53:07.257Z,44.30
2023-06-12T20:55:35.233Z,44.00
2023-06-12T20:58:03.234Z,44.30
2023-06-12T21:00:32.611Z,44.50
2023-06-12T21:03:00.795Z,44.50
2023-06-12T21:05:28.837Z,44.50
2023-06-12T21:07:56.823Z,44.60
2023-06-12T21:10:24.799Z,44.80
2023-06-12T21:12:52.755Z,44.80
2023-06-12T21:15:21.039Z,45.10
2023-06-12T21:17:51.911Z,44.90
2023-06-12T21:20:19.973Z,45.30
2023-06-12T21:22:48.950Z,45.20
2023-06-12T21:25:17.407Z,45.30
2023-06-12T21:27:45.638Z,45.40
2023-06-12T21:30:14.063Z,45.10
2023-06-12T21:32:42.339Z,45.40
2023-06-12T21:35:12.151Z,45.40
2023-06-12T21:37:40.287Z,45.20
2023-06-12T21:40:09.632Z,45.20
2023-06-12T21:42:37.619Z,45.30
2023-06-12T21:45:06.220Z,45.40
2023-06-12T21:47:34.318Z,45.40
2023-06-12T21:50:02.966Z,45.40
2023-06-12T21:52:32.374Z,45.70
2023-06-12T21:55:00.499Z,45.40
2023-06-12T21:57:28.557Z,45.80
2023-06-12T21:59:56.533Z,45.90
2023-06-12T22:02:24.548Z,46.00
2023-06-12T22:04:52.546Z,46.20
2023-06-12T22:07:20.625Z,46.10
2023-06-12T22:09:49.934Z,45.90
2023-06-12T22:12:17.914Z,45.90
2023-06-12T22:14:45.899Z,46.10
2023-06-12T22:17:13.921Z,46.30
2023-06-12T22:19:41.938Z,46.50
2023-06-12T22:22:09.938Z,46.60
2023-06-12T22:24:37.956Z,47.00
2023-06-12T22:27:08.279Z,46.90
2023-06-12T22:29:37.452Z,47.20
2023-06-12T22:32:06.096Z,47.20
2023-06-12T22:34:34.133Z,47.20
2023-06-12T22:37:02.505Z,47.30
2023-06-12T22:39:30.450Z,47.20
2023-06-12T22:41:58.387Z,47.10
2023-06-12T22:44:27.899Z,47.20
2023-06-12T22:46:55.847Z,47.00
2023-06-12T22:49:24.214Z,47.30
2023-06-12T22:51:52.245Z,47.20
2023-06-12T22:54:20.212Z,47.40
2023-06-12T22:56:48.445Z,47.20
2023-06-12T22:59:16.484Z,47.50
2023-06-12T23:01:45.851Z,47.30
2023-06-12T23:04:14.023Z,47.20
2023-06-12T23:06:42.024Z,46.70
2023-06-12T23:09:10.361Z,46.90
2023-06-12T23:11:38.360Z,47.00
2023-06-12T23:14:06.330Z,46.80
2023-06-12T23:16:34.310Z,46.90
2023-06-12T23:19:06.593Z,46.60
2023-06-12T23:21:36.578Z,46.60
2023-06-12T23:24:07.004Z,46.90
2023-06-12T23:26:35.097Z,47.00
2023-06-12T23:29:03.339Z,46.90
2023-06-12T23:31:33.494Z,47.10
2023-06-12T23:34:02.991Z,46.70
2023-06-12T23:36:31.368Z,47.00
2023-06-12T23:38:59.330Z,47.20
2023-06-12T23:41:27.341Z,47.20
2023-06-12T23:43:55.510Z,47.10
2023-06-12T23:46:23.482Z,47.10
2023-06-12T23:48:51.447Z,47.20
2023-06-12T23:51:20.884Z,47.40
2023-06-12T23:53:48.828Z,47.40
2023-06-12T23:56:16.834Z,47.40
2023-06-12T23:58:44.868Z,47.50
